Time;durP1;ratioP1;P1;durP2;ratioP2;P2;SDS_P1;SDS_P2;PMS_P1;PMS_P2;Temp;Humidity;BMP_temperature;BMP_pressure;BME280_temperature;BME280_humidity;BME280_pressure;Samples;Min_cycle;Max_cycle;Signal;HPM_P1;HPM_P2
2021/03/07 00:01:19;;;;;;;96.42;33.63;;;;;;;-4.04;65.76;98207.92;1832893;77;27552;-87
2021/03/07 00:03:46;;;;;;;98.62;37.65;;;;;;;-4.05;65.90;98204.91;1796864;77;25662;-87
2021/03/07 00:06:13;;;;;;;110.17;43.75;;;;;;;-4.13;65.78;98203.27;1806963;77;25771;-88
2021/03/07 00:08:41;;;;;;;97.30;41.10;;;;;;;-4.11;65.70;98206.66;1798578;77;25773;-87
2021/03/07 00:11:09;;;;;;;100.80;40.80;;;;;;;-4.13;65.76;98209.86;1789584;77;25781;-87
2021/03/07 00:13:36;;;;;;;104.15;44.25;;;;;;;-4.05;65.82;98212.83;1809516;77;28730;-87
2021/03/07 00:16:03;;;;;;;119.90;45.35;;;;;;;-4.01;65.78;98210.84;1833430;77;25669;-88
2021/03/07 00:18:31;;;;;;;111.70;44.53;;;;;;;-3.97;65.82;98212.78;1831733;77;25843;-88
2021/03/07 00:20:58;;;;;;;104.43;42.05;;;;;;;-3.93;65.76;98215.59;1817329;77;25699;-87
2021/03/07 00:23:25;;;;;;;112.03;40.33;;;;;;;-4.00;65.71;98213.38;1803791;77;25748;-89
2021/03/07 00:25:53;;;;;;;97.65;39.50;;;;;;;-4.09;65.68;98209.16;1800033;77;27478;-87
2021/03/07 00:28:20;;;;;;;104.60;39.73;;;;;;;-4.18;65.79;98197.44;1794662;77;25703;-88
2021/03/07 00:30:47;;;;;;;100.20;39.13;;;;;;;-4.13;65.95;98197.99;1812324;77;25766;-87
2021/03/07 00:33:15;;;;;;;99.75;40.05;;;;;;;-4.13;65.88;98189.23;1809566;77;26537;-87
2021/03/07 00:35:42;;;;;;;90.07;37.28;;;;;;;-4.16;65.88;98190.75;1800318;77;26182;-87
2021/03/07 00:38:09;;;;;;;83.87;34.27;;;;;;;-4.14;66.00;98184.44;1803929;77;27549;-88
2021/03/07 00:40:36;;;;;;;91.47;37.28;;;;;;;-4.15;65.91;98176.16;1835324;77;25697;-88
2021/03/07 00:43:04;;;;;;;94.03;37.83;;;;;;;-4.13;65.80;98171.63;1846706;77;25703;-89
2021/03/07 00:45:33;;;;;;;98.20;37.65;;;;;;;-4.05;65.78;98170.63;1826811;77;25572;-88
2021/03/07 00:48:00;;;;;;;102.82;39.08;;;;;;;-4.11;65.71;98163.62;1807099;77;25781;-88
2021/03/07 00:50:28;;;;;;;84.70;33.92;;;;;;;-4.17;65.71;98155.63;1770176;79;27494;-88
2021/03/07 00:52:56;;;;;;;85.03;34.53;;;;;;;-4.21;65.82;98158.09;1770420;79;25826;-88
2021/03/07 00:55:25;;;;;;;82.33;32.78;;;;;;;-4.33;65.78;98153.62;1767578;79;25868;-88
2021/03/07 00:57:52;;;;;;;92.40;33.00;;;;;;;-4.30;65.96;98149.47;1773351;79;26216;-88
2021/03/07 01:00:27;;;;;;;72.37;30.10;;;;;;;-4.28;66.09;98146.27;1785569;79;25749;-88
2021/03/07 01:02:55;;;;;;;71.05;29.18;;;;;;;-4.32;66.09;98135.55;1771774;78;27594;-89
2021/03/07 01:05:30;;;;;;;69.97;29.55;;;;;;;-4.35;66.12;98134.45;1795474;78;25773;-89
2021/03/07 01:07:58;;;;;;;57.75;27.52;;;;;;;-4.35;66.15;98128.68;1789321;79;25761;-89
2021/03/07 01:10:31;;;;;;;68.05;28.20;;;;;;;-4.44;66.09;98122.70;1780110;79;26019;-88
2021/03/07 01:12:58;;;;;;;76.02;28.83;;;;;;;-4.42;66.32;98119.97;1782730;79;25677;-88
2021/03/07 01:15:31;;;;;;;81.60;39.90;;;;;;;-4.31;66.28;98117.47;1787127;78;28452;-89
2021/03/07 01:18:00;;;;;;;68.25;30.32;;;;;;;-4.28;66.19;98108.05;1766312;79;26393;-86
2021/03/07 01:20:28;;;;;;;60.05;28.67;;;;;;;-4.27;66.06;98100.52;1769652;79;25766;-86
2021/03/07 01:22:57;;;;;;;63.00;25.27;;;;;;;-4.20;66.01;98092.55;1790923;79;25869;-87
2021/03/07 01:25:31;;;;;;;53.78;24.57;;;;;;;-4.26;65.98;98085.55;1795632;79;25683;-87
2021/03/07 01:28:05;;;;;;;58.35;25.15;;;;;;;-4.42;65.92;98083.92;1772692;79;27541;-87
2021/03/07 01:30:36;;;;;;;60.65;26.33;;;;;;;-4.37;66.16;98070.45;1777320;79;25785;-89
2021/03/07 01:33:05;;;;;;;48.08;19.32;;;;;;;-4.37;66.10;98065.18;1768450;79;25364;-88
2021/03/07 01:35:34;;;;;;;46.83;20.32;;;;;;;-4.38;66.27;98066.13;1789203;79;25586;-87
2021/03/07 01:38:02;;;;;;;53.52;23.00;;;;;;;-4.45;66.26;98060.41;1777306;79;25905;-87
2021/03/07 01:40:40;;;;;;;48.63;22.25;;;;;;;-4.33;66.32;98054.78;1768830;78;28836;-87
2021/03/07 01:43:07;;;;;;;45.40;22.30;;;;;;;-4.32;66.23;98050.35;1791401;78;26101;-87
2021/03/07 01:45:35;;;;;;;54.95;22.27;;;;;;;-4.31;66.23;98041.03;1778141;79;25596;-88
2021/03/07 01:48:12;;;;;;;50.58;21.35;;;;;;;-4.31;66.31;98031.80;1799581;77;25581;-87
2021/03/07 01:50:43;;;;;;;52.48;27.17;;;;;;;-4.35;66.17;98036.43;1842971;77;26378;-87
2021/03/07 01:53:11;;;;;;;41.10;18.62;;;;;;;-4.36;66.27;98040.52;1819367;77;32308;-87
2021/03/07 01:55:40;;;;;;;40.23;20.88;;;;;;;-4.38;66.31;98037.13;1821329;77;26069;-88
2021/03/07 01:58:22;;;;;;;35.20;16.85;;;;;;;-4.36;66.51;98036.09;1809502;77;25735;-87
2021/03/07 02:00:50;;;;;;;37.63;17.65;;;;;;;-4.46;66.28;98023.61;1809659;77;25567;-87
2021/03/07 02:03:18;;;;;;;40.10;18.32;;;;;;;-4.48;66.65;98026.84;1809502;77;25678;-87
2021/03/07 02:05:46;;;;;;;43.23;16.10;;;;;;;-4.43;66.76;98020.77;1809416;77;28472;-88
2021/03/07 02:08:16;;;;;;;35.75;16.57;;;;;;;-4.35;66.88;98015.85;1819340;77;25698;-87
2021/03/07 02:10:49;;;;;;;30.40;16.00;;;;;;;-4.27;66.97;98020.12;1807382;77;25343;-87
2021/03/07 02:13:19;;;;;;;;;;;;;;;-4.25;66.82;98009.00;1805417;77;25782;-87
2021/03/07 02:15:51;;;;;;;36.93;15.23;;;;;;;-4.23;66.90;98009.74;1800850;77;25705;-87
2021/03/07 02:18:19;;;;;;;32.90;14.73;;;;;;;-4.26;66.85;98017.01;1809531;77;27549;-87
2021/03/07 02:21:00;;;;;;;32.93;15.38;;;;;;;-4.23;66.95;98012.85;1809420;77;25747;-87
2021/03/07 02:23:31;;;;;;;27.93;13.65;;;;;;;-4.28;66.93;98004.41;1831162;77;25683;-87
2021/03/07 02:25:59;;;;;;;32.00;16.47;;;;;;;-4.35;66.87;98007.44;1818941;77;25806;-87
2021/03/07 02:28:27;;;;;;;28.40;14.20;;;;;;;-4.33;67.04;98004.70;1803557;77;25689;-87
2021/03/07 02:30:55;;;;;;;32.40;15.03;;;;;;;-4.30;67.10;97996.59;1836921;77;27529;-86
2021/03/07 02:33:28;;;;;;;29.12;16.00;;;;;;;-4.29;67.11;97994.33;1809338;77;25916;-88
2021/03/07 02:36:16;;;;;;;29.30;13.75;;;;;;;-4.26;67.23;97994.13;1806125;77;25867;-87
2021/03/07 02:38:45;;;;;;;36.10;17.30;;;;;;;-4.32;67.21;97986.63;1808561;77;25670;-87
2021/03/07 02:41:15;;;;;;;27.45;13.58;;;;;;;-4.45;67.23;97980.03;1832836;77;26567;-86
2021/03/07 02:43:46;;;;;;;37.23;16.35;;;;;;;-4.33;67.43;97980.98;1797685;77;28471;-87
2021/03/07 02:46:16;;;;;;;38.10;17.42;;;;;;;-4.38;67.38;97976.52;1796337;77;26059;-86
2021/03/07 02:48:49;;;;;;;33.20;15.48;;;;;;;-4.37;67.30;97971.63;1844482;77;25807;-86
2021/03/07 02:51:16;;;;;;;28.00;12.43;;;;;;;-4.24;67.26;97967.66;1851492;77;26514;-86
2021/03/07 02:53:45;;;;;;;25.45;11.63;;;;;;;-4.06;67.25;97976.45;1836245;77;25772;-87
2021/03/07 02:56:16;;;;;;;18.55;10.82;;;;;;;-4.01;67.07;97973.03;1842443;77;27529;-87
2021/03/07 02:58:46;;;;;;;22.17;11.20;;;;;;;-3.92;66.98;97972.84;1831069;77;25710;-86
2021/03/07 03:01:18;;;;;;;25.32;10.90;;;;;;;-3.80;66.91;97964.54;1812106;77;25301;-85
2021/03/07 03:03:49;;;;;;;21.00;10.98;;;;;;;-3.69;66.49;97960.66;1839820;77;34846;-86
2021/03/07 03:06:17;;;;;;;26.27;13.50;;;;;;;-3.69;66.49;97960.66;1841211;77;25753;-87
2021/03/07 03:08:49;;;;;;;22.58;11.68;;;;;;;-3.68;66.44;97962.35;1851625;77;27536;-86
2021/03/07 03:11:18;;;;;;;;;;;;;;;-3.63;66.38;97960.23;1853825;77;26744;-86
2021/03/07 03:13:49;;;;;;;26.20;12.73;;;;;;;-3.52;66.34;97965.59;1791843;78;25814;-87
2021/03/07 03:16:18;;;;;;;26.30;11.70;;;;;;;-3.47;66.27;97967.40;1767044;80;26280;-87
2021/03/07 03:18:47;;;;;;;25.68;11.28;;;;;;;-3.42;66.31;97967.08;1780374;80;25743;-86
2021/03/07 03:21:15;;;;;;;25.90;13.22;;;;;;;-3.45;66.27;97965.50;1814450;79;28535;-87
2021/03/07 03:23:42;;;;;;;23.85;12.03;;;;;;;-3.54;66.21;97957.41;1814413;79;25772;-86
2021/03/07 03:26:11;;;;;;;22.93;11.48;;;;;;;-3.53;66.38;97963.89;1814478;79;26011;-87
2021/03/07 03:28:39;;;;;;;31.97;13.70;;;;;;;-3.52;66.35;97958.98;1814422;79;25868;-86
2021/03/07 03:31:07;;;;;;;63.40;24.32;;;;;;;-3.64;66.18;97962.51;1815660;78;25740;-87
2021/03/07 03:33:34;;;;;;;45.85;20.52;;;;;;;-3.70;66.21;97953.70;1793161;79;27549;-88
2021/03/07 03:36:02;;;;;;;56.13;22.25;;;;;;;-3.66;66.32;97956.49;1759806;80;25806;-87
2021/03/07 03:38:50;;;;;;;34.78;15.78;;;;;;;-3.69;66.23;97955.38;1779588;79;25300;-87
2021/03/07 03:41:21;;;;;;;26.87;14.25;;;;;;;-3.75;66.21;97957.16;1780062;80;25525;-87
2021/03/07 03:43:53;;;;;;;35.38;15.03;;;;;;;-3.83;66.10;97952.88;1758933;80;25904;-86
2021/03/07 03:46:22;;;;;;;29.02;14.60;;;;;;;-3.86;66.11;97951.77;1792169;80;27468;-87
2021/03/07 03:48:58;;;;;;;25.40;12.98;;;;;;;-3.81;66.19;97958.42;1769784;80;26330;-88
2021/03/07 03:51:26;;;;;;;28.12;13.88;;;;;;;-3.71;66.28;97954.17;1768044;80;25795;-86
2021/03/07 03:53:56;;;;;;;40.65;16.67;;;;;;;-3.65;66.15;97951.11;1769170;80;26463;-86
2021/03/07 03:56:26;;;;;;;37.53;15.88;;;;;;;-3.65;65.94;97951.11;1788464;80;26118;-85
2021/03/07 03:58:56;;;;;;;37.30;15.68;;;;;;;-3.60;65.98;97956.03;1789258;80;28510;-86
2021/03/07 04:01:25;;;;;;;24.18;12.03;;;;;;;-3.49;66.01;97956.10;1727054;81;25898;-85
2021/03/07 04:03:54;;;;;;;27.20;12.65;;;;;;;-3.47;65.99;97951.56;1775247;80;25742;-86
2021/03/07 04:06:25;;;;;;;25.62;12.53;;;;;;;-3.51;65.85;97946.64;1788020;80;26439;-86
2021/03/07 04:08:54;;;;;;;25.30;12.20;;;;;;;-3.62;65.66;97949.20;1842958;77;25781;-86
2021/03/07 04:11:23;;;;;;;26.42;13.55;;;;;;;-3.68;65.69;97950.48;1842791;77;27591;-87
2021/03/07 04:13:53;;;;;;;26.68;13.32;;;;;;;-3.67;65.81;97942.45;1827775;77;25805;-87
2021/03/07 04:16:21;;;;;;;28.38;14.68;;;;;;;-3.61;65.70;97943.80;1835310;77;25765;-87
2021/03/07 04:18:50;;;;;;;25.15;13.30;;;;;;;-3.60;65.67;97945.48;1842590;77;26070;-87
2021/03/07 04:21:19;;;;;;;25.90;12.43;;;;;;;-3.65;65.63;97939.23;1803101;77;25886;-87
2021/03/07 04:23:46;;;;;;;23.70;12.90;;;;;;;-3.62;65.62;97935.03;1820741;77;28441;-86
2021/03/07 04:26:14;;;;;;;21.87;11.97;;;;;;;-3.61;65.59;97937.20;1842606;77;25972;-86
2021/03/07 04:28:42;;;;;;;21.27;12.53;;;;;;;-3.63;65.56;97937.81;1842519;77;25796;-86
2021/03/07 04:31:10;;;;;;;25.55;12.23;;;;;;;-3.65;65.55;97942.35;1842665;77;25769;-87
2021/03/07 04:33:38;;;;;;;31.65;13.48;;;;;;;-3.66;65.56;97942.83;1803911;77;25741;-86
2021/03/07 04:36:06;;;;;;;26.20;12.93;;;;;;;-3.72;65.51;97935.33;1825393;77;27553;-86
2021/03/07 04:38:35;;;;;;;25.20;14.45;;;;;;;-3.73;65.55;97938.92;1822292;77;26385;-87
2021/03/07 04:41:03;;;;;;;30.30;14.15;;;;;;;-3.79;65.48;97934.58;1842780;77;25641;-86
2021/03/07 04:43:53;;;;;;;26.80;12.73;;;;;;;-3.78;65.62;97933.63;1811177;77;26219;-86
2021/03/07 04:46:22;;;;;;;24.65;12.75;;;;;;;-3.82;65.57;97928.19;1793630;77;25857;-87
2021/03/07 04:48:51;;;;;;;31.85;13.20;;;;;;;-3.82;65.74;97930.83;1795063;77;27498;-86
2021/03/07 04:51:19;;;;;;;32.03;13.93;;;;;;;-3.82;65.63;97934.78;1827148;77;25692;-86
2021/03/07 04:53:46;;;;;;;31.27;13.40;;;;;;;-3.82;65.67;97932.99;1818492;77;25703;-86
2021/03/07 04:56:14;;;;;;;34.30;14.93;;;;;;;-3.77;65.68;97927.40;1839563;77;26301;-87
2021/03/07 04:58:41;;;;;;;35.65;15.18;;;;;;;-3.75;65.67;97929.45;1835419;77;25791;-86
2021/03/07 05:01:09;;;;;;;37.50;16.07;;;;;;;-3.71;65.67;97921.67;1847326;77;27618;-86
2021/03/07 05:03:36;;;;;;;40.33;16.65;;;;;;;-3.68;65.60;97928.89;1818040;77;25761;-86
2021/03/07 05:06:04;;;;;;;46.55;18.23;;;;;;;-3.76;65.42;97922.02;1803881;77;25693;-86
2021/03/07 05:08:32;;;;;;;39.98;16.90;;;;;;;-3.80;65.33;97915.74;1839444;77;26338;-86
2021/03/07 05:10:59;;;;;;;45.23;19.92;;;;;;;-3.87;65.32;97921.95;1840905;77;25756;-86
2021/03/07 05:13:26;;;;;;;39.73;17.98;;;;;;;-3.89;65.44;97912.45;1827895;77;27580;-87
2021/03/07 05:15:54;;;;;;;38.10;18.12;;;;;;;-3.92;65.50;97913.50;1851541;77;26212;-85
2021/03/07 05:18:21;;;;;;;35.68;18.37;;;;;;;-3.91;65.53;97907.75;1828017;77;25762;-85
2021/03/07 05:20:49;;;;;;;36.13;18.62;;;;;;;-3.89;65.56;97900.11;1851545;77;25723;-86
2021/03/07 05:23:16;;;;;;;40.65;18.85;;;;;;;-3.82;65.62;97900.49;1827903;77;25657;-86
2021/03/07 05:25:43;;;;;;;37.33;19.82;;;;;;;-3.80;65.55;97896.80;1836695;77;27504;-85
2021/03/07 05:28:11;;;;;;;40.55;21.48;;;;;;;-3.72;65.61;97902.83;1819616;77;25812;-87
2021/03/07 05:30:38;;;;;;;46.00;21.10;;;;;;;-3.69;65.51;97897.34;1845084;77;25706;-86
2021/03/07 05:33:06;;;;;;;55.28;28.83;;;;;;;-3.61;65.55;97896.30;1851559;77;25757;-86
2021/03/07 05:35:33;;;;;;;50.55;23.60;;;;;;;-3.53;65.51;97892.64;1827829;77;25343;-86
2021/03/07 05:38:00;;;;;;;53.95;21.02;;;;;;;-3.49;65.42;97890.13;1851500;77;27558;-85
2021/03/07 05:40:28;;;;;;;34.23;15.32;;;;;;;-3.49;65.36;97887.48;1827457;77;25765;-86
2021/03/07 05:42:55;;;;;;;25.57;12.80;;;;;;;-3.48;65.26;97891.81;1828912;77;25824;-86
2021/03/07 05:45:22;;;;;;;24.05;13.20;;;;;;;-3.51;65.29;97889.42;1851647;77;25724;-86
2021/03/07 05:47:52;;;;;;;22.55;11.33;;;;;;;-3.51;65.33;97888.58;1827997;77;25875;-86
2021/03/07 05:50:20;;;;;;;21.17;10.88;;;;;;;-3.44;65.32;97877.44;1822677;77;27580;-85
2021/03/07 05:52:49;;;;;;;20.12;10.95;;;;;;;-3.36;65.28;97875.06;1767682;79;26041;-86
2021/03/07 05:55:17;;;;;;;17.42;9.03;;;;;;;-3.26;65.19;97876.06;1763886;79;25833;-86
2021/03/07 05:57:49;;;;;;;21.37;10.93;;;;;;;-3.17;65.04;97878.52;1774922;79;25714;-85
2021/03/07 06:00:21;;;;;;;21.25;9.78;;;;;;;-3.09;64.96;97873.97;1771163;79;32163;-85
2021/03/07 06:02:48;;;;;;;19.90;10.80;;;;;;;-3.03;64.84;97866.92;1763933;79;27498;-86
2021/03/07 06:05:16;;;;;;;23.32;10.53;;;;;;;-2.97;64.74;97871.25;1763728;79;26154;-86
2021/03/07 06:07:47;;;;;;;19.35;10.80;;;;;;;-2.93;64.68;97859.50;1787391;79;25704;-85
2021/03/07 06:10:26;;;;;;;19.77;10.85;;;;;;;-2.86;64.64;97865.14;1789045;79;26259;-85
2021/03/07 06:13:10;;;;;;;18.75;10.68;;;;;;;-2.78;64.64;97865.42;1777341;79;25762;-85
2021/03/07 06:15:47;;;;;;;17.90;9.78;;;;;;;-2.69;64.44;97875.28;1786168;79;27477;-85
2021/03/07 06:18:19;;;;;;;17.05;9.65;;;;;;;-2.63;64.30;97878.75;1779577;79;26106;-85
2021/03/07 06:20:51;;;;;;;22.50;10.50;;;;;;;-2.56;64.19;97867.25;1786511;79;25709;-85
2021/03/07 06:23:23;;;;;;;18.02;9.43;;;;;;;-2.47;64.09;97870.49;1768443;79;25707;-83
2021/03/07 06:25:52;;;;;;;19.75;10.00;;;;;;;-2.40;64.00;97868.20;1758274;79;25811;-83
2021/03/07 06:28:28;;;;;;;18.23;10.50;;;;;;;-2.33;63.85;97871.59;1763811;79;28464;-82
2021/03/07 06:30:56;;;;;;;16.73;8.65;;;;;;;-2.23;63.72;97865.93;1775692;79;26291;-82
2021/03/07 06:33:33;;;;;;;19.10;9.90;;;;;;;-2.13;63.55;97866.04;1776480;79;26388;-81
2021/03/07 06:36:24;;;;;;;15.65;9.45;;;;;;;-2.08;63.29;97861.23;1772793;79;25733;-82
2021/03/07 06:39:01;;;;;;;16.00;9.25;;;;;;;-1.98;63.22;97871.45;1771618;79;25875;-83
2021/03/07 06:41:32;;;;;;;18.90;10.00;;;;;;;-1.90;63.07;97866.37;1769754;79;27491;-82
2021/03/07 06:44:12;;;;;;;19.67;10.65;;;;;;;-1.80;62.92;97865.14;1789174;79;26066;-82
2021/03/07 06:46:43;;;;;;;17.70;8.90;;;;;;;-1.73;62.73;97862.38;1778588;79;25742;-83
2021/03/07 06:49:26;;;;;;;22.93;10.60;;;;;;;-1.65;62.65;97855.12;1770305;79;26352;-82
2021/03/07 06:52:00;;;;;;;21.70;10.65;;;;;;;-1.58;62.50;97858.50;1820387;77;26246;-83
2021/03/07 06:54:25;;;;;;;21.48;9.98;;;;;;;-1.49;62.45;97860.88;1825320;77;27558;-82
2021/03/07 06:56:52;;;;;;;18.57;9.55;;;;;;;-1.41;62.37;97862.39;1839287;77;26184;-84
2021/03/07 06:59:24;;;;;;;20.72;8.85;;;;;;;-1.37;62.17;97853.24;1847790;77;25768;-83
2021/03/07 07:01:55;;;;;;;17.85;8.83;;;;;;;-1.29;62.10;97848.62;1841145;77;26424;-82
2021/03/07 07:04:25;;;;;;;21.75;10.72;;;;;;;-1.23;61.89;97841.03;1845242;77;25873;-82
2021/03/07 07:07:09;;;;;;;19.05;10.90;;;;;;;-1.12;61.91;97838.33;1821007;77;27495;-83
2021/03/07 07:09:36;;;;;;;18.00;10.43;;;;;;;-1.02;61.81;97833.58;1848218;77;25768;-83
2021/03/07 07:12:07;;;;;;;18.90;10.32;;;;;;;-0.92;61.67;97831.34;1855118;77;25667;-83
2021/03/07 07:14:41;;;;;;;17.67;9.67;;;;;;;-0.75;61.53;97823.30;1829806;77;26877;-82
2021/03/07 07:17:11;;;;;;;17.95;9.35;;;;;;;-0.75;61.53;97823.30;1835336;77;26220;-81
2021/03/07 07:19:40;;;;;;;18.80;9.65;;;;;;;-0.68;61.24;97823.59;1853677;77;27571;-82
2021/03/07 07:22:11;;;;;;;20.85;9.93;;;;;;;-0.64;60.96;97819.23;1820747;77;26505;-83
2021/03/07 07:24:41;;;;;;;25.17;10.75;;;;;;;-0.58;60.83;97820.51;1821105;77;25753;-83
2021/03/07 07:27:09;;;;;;;21.27;10.45;;;;;;;-0.48;60.76;97824.88;1821489;77;25734;-83
2021/03/07 07:29:37;;;;;;;21.17;11.83;;;;;;;-0.38;60.68;97816.51;1843004;77;25684;-83
2021/03/07 07:32:25;;;;;;;19.35;10.23;;;;;;;-0.21;60.59;97816.83;1846365;77;27484;-84
2021/03/07 07:35:01;;;;;;;20.15;10.65;;;;;;;-0.09;60.44;97811.77;1838622;77;25733;-84
2021/03/07 07:37:54;;;;;;;18.87;11.10;;;;;;;0.05;60.40;97811.88;1831077;77;25742;-84
2021/03/07 07:43:14;;;;;;;23.18;11.93;;;;;;;0.44;59.98;97807.48;1873026;76;34875;-85
2021/03/07 07:45:42;;;;;;;20.30;11.15;;;;;;;0.54;59.99;97798.55;1828774;77;25926;-83
2021/03/07 07:48:10;;;;;;;19.98;11.95;;;;;;;0.66;59.64;97796.59;1831102;77;28424;-84
2021/03/07 07:50:39;;;;;;;20.17;11.93;;;;;;;0.79;59.51;97797.63;1831514;77;25788;-83
2021/03/07 07:53:14;;;;;;;24.20;12.58;;;;;;;0.98;59.33;97790.47;1848693;77;25693;-84
2021/03/07 07:55:49;;;;;;;22.10;12.45;;;;;;;1.19;59.20;97786.81;1810590;77;25849;-84
2021/03/07 07:58:41;;;;;;;17.75;9.80;;;;;;;1.40;59.03;97779.47;1830492;77;25866;-84
2021/03/07 08:01:13;;;;;;;14.30;9.33;;;;;;;1.59;59.04;97775.88;1835459;77;27607;-83
2021/03/07 08:03:46;;;;;;;12.78;8.58;;;;;;;1.86;58.83;97775.06;1852283;77;25792;-81
2021/03/07 08:06:30;;;;;;;17.15;8.43;;;;;;;2.10;58.65;97771.36;1824969;77;25814;-83
2021/03/07 08:08:58;;;;;;;14.23;8.33;;;;;;;2.26;57.66;97764.05;1806511;77;25818;-83
2021/03/07 08:11:29;;;;;;;11.28;7.72;;;;;;;2.50;57.49;97755.80;1844618;77;25859;-81
2021/03/07 08:13:59;;;;;;;12.82;8.25;;;;;;;2.71;57.23;97754.64;1852301;76;28435;-81
2021/03/07 08:16:42;;;;;;;14.83;7.65;;;;;;;2.88;56.55;97744.46;1852156;77;26205;-83
2021/03/07 08:19:16;;;;;;;13.03;8.00;;;;;;;3.01;55.85;97742.72;1852338;77;25818;-84
2021/03/07 08:22:05;;;;;;;13.58;7.58;;;;;;;3.16;55.63;97737.98;1828737;77;25433;-82
2021/03/07 08:24:57;;;;;;;14.10;8.20;;;;;;;3.31;54.96;97741.41;1852455;77;26184;-85
2021/03/07 08:27:36;;;;;;;14.78;7.80;;;;;;;3.41;54.06;97734.12;1852247;77;27549;-83
2021/03/07 08:30:08;;;;;;;10.82;7.42;;;;;;;3.53;53.95;97725.68;1821311;77;25789;-82
2021/03/07 08:32:45;;;;;;;11.60;6.95;;;;;;;3.68;53.85;97729.09;1827787;77;25807;-82
2021/03/07 08:35:20;;;;;;;10.15;7.80;;;;;;;3.81;53.75;97726.31;1815455;77;25670;-84
2021/03/07 08:38:15;;;;;;;13.35;8.03;;;;;;;3.94;53.36;97719.18;1832297;77;26320;-85
2021/03/07 08:40:44;;;;;;;15.63;9.60;;;;;;;4.17;53.43;97714.06;1848467;77;27473;-83
2021/03/07 08:43:30;;;;;;;19.45;10.75;;;;;;;4.22;52.04;97708.58;1834601;77;26063;-82
2021/03/07 08:46:12;;;;;;;18.32;10.28;;;;;;;4.18;51.62;97711.73;1802549;78;25675;-83
2021/03/07 08:48:46;;;;;;;14.60;8.95;;;;;;;4.21;51.25;97705.56;1818066;77;26020;-82
2021/03/07 08:51:17;;;;;;;12.53;8.63;;;;;;;4.30;51.43;97707.74;1812144;77;25789;-83
2021/03/07 08:53:46;;;;;;;12.73;7.58;;;;;;;4.33;50.66;97697.57;1795934;77;28393;-83
2021/03/07 08:56:15;;;;;;;13.98;8.95;;;;;;;4.41;50.86;97699.91;1764356;77;26127;-83
2021/03/07 08:58:47;;;;;;;12.20;7.58;;;;;;;4.46;50.29;97693.08;1772444;78;25713;-85
2021/03/07 09:01:15;;;;;;;18.23;10.32;;;;;;;4.54;50.24;97693.06;1806408;78;25726;-85
2021/03/07 09:03:42;;;;;;;14.10;8.70;;;;;;;4.64;50.09;97695.07;1765956;77;25845;-84
2021/03/07 09:06:13;;;;;;;18.73;10.20;;;;;;;4.77;50.04;97685.20;1732260;79;27509;-86
2021/03/07 09:08:40;;;;;;;17.30;9.40;;;;;;;5.00;50.11;97677.32;1764269;77;25697;-85
2021/03/07 09:11:10;;;;;;;14.80;7.22;;;;;;;5.25;49.66;97674.93;1764387;77;25776;-84
2021/03/07 09:13:49;;;;;;;12.80;8.68;;;;;;;5.41;49.76;97666.86;1800492;77;25678;-83
2021/03/07 09:16:17;;;;;;;14.03;8.93;;;;;;;5.57;49.47;97657.08;1792063;77;25712;-84
2021/03/07 09:18:47;;;;;;;12.15;8.30;;;;;;;5.73;49.08;97645.80;1775552;77;28478;-84
2021/03/07 09:21:17;;;;;;;12.05;8.60;;;;;;;5.83;48.27;97649.59;1790033;80;25749;-84
2021/03/07 09:23:47;;;;;;;8.95;6.70;;;;;;;6.05;48.61;97642.12;1774619;77;26289;-84
2021/03/07 09:26:20;;;;;;;12.03;8.10;;;;;;;6.42;48.81;97647.22;1793212;77;26086;-83
2021/03/07 09:28:53;;;;;;;10.85;7.92;;;;;;;6.63;48.56;97635.34;1826434;77;25873;-86
2021/03/07 09:31:27;;;;;;;11.88;8.88;;;;;;;6.78;47.92;97627.30;1815707;78;27573;-86
2021/03/07 09:33:57;;;;;;;10.90;7.80;;;;;;;6.97;47.42;97631.33;1816927;78;25758;-86
2021/03/07 09:36:28;;;;;;;12.25;7.60;;;;;;;7.09;47.34;97623.16;1792643;77;25731;-85
2021/03/07 09:39:02;;;;;;;7.78;6.30;;;;;;;7.18;47.40;97618.02;1804345;77;25709;-84
2021/03/07 09:41:46;;;;;;;10.40;6.55;;;;;;;7.36;46.82;97623.86;1818810;77;26364;-85
2021/03/07 09:44:22;;;;;;;7.10;6.05;;;;;;;7.52;45.83;97612.06;1834968;77;27545;-85
2021/03/07 09:46:53;;;;;;;10.23;7.30;;;;;;;7.74;45.77;97604.38;1836554;77;25715;-84
2021/03/07 09:49:23;;;;;;;21.02;12.85;;;;;;;7.93;45.86;97602.96;1845175;77;25728;-85
2021/03/07 09:51:53;;;;;;;17.27;10.20;;;;;;;8.14;45.15;97594.91;1821560;77;26280;-84
2021/03/07 09:54:21;;;;;;;15.93;8.83;;;;;;;8.21;45.18;97595.80;1825186;77;25758;-85
2021/03/07 09:56:53;;;;;;;12.07;7.83;;;;;;;8.34;44.93;97588.91;1851532;76;27488;-85
2021/03/07 09:59:27;;;;;;;9.73;5.78;;;;;;;8.54;44.87;97584.56;1827787;77;25703;-85
2021/03/07 10:02:01;;;;;;;12.13;7.75;;;;;;;8.65;44.15;97579.48;1837084;77;25737;-85
2021/03/07 10:04:45;;;;;;;9.05;6.45;;;;;;;8.76;43.52;97580.80;1836508;77;25795;-85
2021/03/07 10:07:19;;;;;;;11.95;6.35;;;;;;;8.59;42.59;97576.72;1844519;77;25812;-84
2021/03/07 10:10:03;;;;;;;7.12;5.53;;;;;;;8.36;42.26;97569.38;1843472;77;27541;-84
2021/03/07 10:12:59;;;;;;;13.08;7.30;;;;;;;8.40;42.09;97571.50;1852764;77;25688;-85
2021/03/07 10:15:33;;;;;;;12.93;8.35;;;;;;;8.35;41.39;97568.55;1839532;77;26005;-85
2021/03/07 10:18:17;;;;;;;12.03;7.80;;;;;;;8.30;41.32;97559.70;1829479;77;25797;-84
2021/03/07 10:20:50;;;;;;;9.53;6.30;;;;;;;8.48;41.68;97563.29;1829854;77;25811;-85
2021/03/07 10:23:17;;;;;;;;;;;;;;;8.59;41.29;97563.27;1829284;77;28800;-84
2021/03/07 10:25:49;;;;;;;7.28;5.12;;;;;;;8.70;40.68;97555.17;1821597;77;26320;-86
2021/03/07 10:28:26;;;;;;;8.60;5.40;;;;;;;8.88;41.27;97555.52;1823534;77;25797;-85
2021/03/07 10:30:57;;;;;;;11.55;6.97;;;;;;;9.12;40.51;97547.48;1830734;77;26239;-85
2021/03/07 10:33:30;;;;;;;10.90;6.62;;;;;;;9.08;40.07;97552.42;1841164;77;25809;-84
2021/03/07 10:36:08;;;;;;;;;;;;;;;9.05;39.50;97546.63;1857957;77;28426;-82
2021/03/07 10:38:48;;;;;;;9.35;6.05;;;;;;;9.09;39.41;97537.94;1855042;77;25625;-82
2021/03/07 10:41:30;;;;;;;8.20;5.42;;;;;;;9.10;39.18;97530.17;1845780;77;25696;-83
2021/03/07 10:44:05;;;;;;;7.55;5.22;;;;;;;9.23;39.56;97532.11;1833963;76;25755;-84
2021/03/07 10:46:42;;;;;;;5.85;4.47;;;;;;;9.38;39.08;97519.34;1832385;77;25790;-85
2021/03/07 10:49:11;;;;;;;8.83;5.70;;;;;;;9.56;39.66;97512.86;1804223;77;28858;-84
2021/03/07 10:51:39;;;;;;;6.67;5.10;;;;;;;9.79;38.67;97514.38;1796814;78;26313;-82
2021/03/07 10:54:07;;;;;;;5.53;4.92;;;;;;;9.63;38.14;97502.13;1815435;78;25681;-83
2021/03/07 10:56:37;;;;;;;6.35;4.65;;;;;;;9.75;38.58;97496.45;1815519;78;26174;-83
2021/03/07 10:59:06;;;;;;;6.65;4.87;;;;;;;9.94;38.37;97498.86;1815480;78;25916;-83
2021/03/07 11:01:33;;;;;;;9.68;5.45;;;;;;;10.05;38.30;97487.47;1815445;78;27485;-84
2021/03/07 11:04:01;;;;;;;7.12;4.65;;;;;;;10.19;37.91;97485.64;1815520;77;26102;-84
2021/03/07 11:06:28;;;;;;;9.05;5.20;;;;;;;10.05;36.94;97488.81;1815491;78;25754;-81
2021/03/07 11:08:56;;;;;;;6.00;4.70;;;;;;;9.88;36.72;97478.96;1815454;78;25812;-82
2021/03/07 11:11:23;;;;;;;6.08;4.50;;;;;;;9.85;36.45;97478.02;1815464;78;25280;-82
2021/03/07 11:13:51;;;;;;;5.42;3.72;;;;;;;9.99;36.66;97466.73;1815467;78;28372;-84
2021/03/07 11:16:18;;;;;;;5.05;4.08;;;;;;;10.17;37.00;97464.23;1812036;78;25685;-83
2021/03/07 11:18:46;;;;;;;4.95;4.03;;;;;;;10.38;36.91;97457.33;1795013;78;26246;-84
2021/03/07 11:21:13;;;;;;;4.37;3.87;;;;;;;10.68;37.31;97459.05;1815406;77;25666;-84
2021/03/07 11:23:41;;;;;;;5.62;3.92;;;;;;;10.96;36.74;97441.73;1800057;78;25738;-84
2021/03/07 11:26:08;;;;;;;6.47;5.30;;;;;;;11.18;35.38;97446.64;1811188;78;28467;-84
2021/03/07 11:28:35;;;;;;;5.85;3.80;;;;;;;11.26;36.45;97439.33;1812586;77;25848;-81
2021/03/07 11:31:03;;;;;;;6.50;4.83;;;;;;;11.54;36.74;97438.46;1814985;78;25715;-82
2021/03/07 11:33:30;;;;;;;5.17;4.17;;;;;;;11.55;35.69;97425.25;1817516;78;25808;-84
2021/03/07 11:35:57;;;;;;;4.80;4.20;;;;;;;11.68;35.84;97429.23;1804588;78;25822;-84
2021/03/07 11:38:25;;;;;;;7.20;4.80;;;;;;;11.82;35.00;97424.60;1798490;77;28473;-84
2021/03/07 11:40:52;;;;;;;6.85;3.72;;;;;;;11.69;34.19;97413.31;1813291;77;25802;-83
2021/03/07 11:43:20;;;;;;;4.78;3.62;;;;;;;11.54;33.62;97412.78;1811366;77;25846;-80
2021/03/07 11:45:47;;;;;;;5.85;4.20;;;;;;;11.38;32.68;97406.52;1821387;77;25835;-84